createdAt,value
2022-11-02T00:02:17.150Z,59.94
2022-11-02T00:04:44.391Z,59.87
2022-11-02T00:07:11.525Z,59.90
2022-11-02T00:09:38.678Z,59.83
2022-11-02T00:12:05.757Z,60.05
2022-11-02T00:14:32.858Z,59.92
2022-11-02T00:16:59.985Z,60.26
2022-11-02T00:19:27.111Z,60.07
2022-11-02T00:21:55.699Z,59.84
2022-11-02T00:24:22.765Z,60.00
2022-11-02T00:26:49.890Z,60.30
2022-11-02T00:29:17.018Z,59.92
2022-11-02T00:31:44.115Z,60.13
2022-11-02T00:34:11.206Z,60.16
2022-11-02T00:36:38.277Z,59.86
2022-11-02T00:39:05.416Z,59.90
2022-11-02T00:41:32.564Z,60.23
2022-11-02T00:43:59.642Z,60.06
2022-11-02T00:46:26.757Z,59.98
2022-11-02T00:48:53.847Z,59.86
2022-11-02T00:51:21.201Z,60.10
2022-11-02T00:53:48.308Z,59.89
2022-11-02T00:56:15.412Z,59.91
2022-11-02T00:58:42.507Z,60.09
2022-11-02T01:01:09.746Z,59.87
2022-11-02T01:03:36.936Z,59.86
2022-11-02T01:06:04.162Z,60.11
2022-11-02T01:08:31.232Z,60.03
2022-11-02T01:10:58.490Z,59.93
2022-11-02T01:13:25.568Z,59.90
2022-11-02T01:15:52.654Z,59.86
2022-11-02T01:18:19.791Z,59.80
2022-11-02T01:20:46.866Z,59.97
2022-11-02T01:23:13.938Z,59.79
2022-11-02T01:25:41.073Z,60.00
2022-11-02T01:28:08.151Z,59.93
2022-11-02T01:30:35.253Z,59.83
2022-11-02T01:33:02.332Z,60.14
2022-11-02T01:35:29.405Z,60.26
2022-11-02T01:37:56.482Z,60.03
2022-11-02T01:40:23.561Z,59.77
2022-11-02T01:42:50.672Z,59.83
2022-11-02T01:45:17.792Z,59.75
2022-11-02T01:47:45.514Z,59.68
2022-11-02T01:50:12.592Z,60.06
2022-11-02T01:52:39.763Z,59.91
2022-11-02T01:55:06.937Z,59.95
2022-11-02T01:57:34.054Z,59.87
2022-11-02T02:00:01.134Z,59.74
2022-11-02T02:02:28.362Z,59.89
2022-11-02T02:04:55.612Z,60.00
2022-11-02T02:07:24.260Z,60.05
2022-11-02T02:09:51.604Z,59.86
2022-11-02T02:12:18.751Z,59.76
2022-11-02T02:14:45.865Z,59.60
2022-11-02T02:17:12.952Z,59.99
2022-11-02T02:19:40.097Z,59.81
2022-11-02T02:22:07.172Z,59.90
2022-11-02T02:24:34.268Z,59.68
2022-11-02T02:27:01.339Z,59.79
2022-11-02T02:29:28.435Z,59.92
2022-11-02T02:31:55.522Z,60.03
2022-11-02T02:34:22.617Z,59.98
2022-11-02T02:36:49.738Z,59.58
2022-11-02T02:39:16.878Z,59.64
2022-11-02T02:41:43.987Z,59.72
2022-11-02T02:44:11.843Z,59.66
2022-11-02T02:46:40.518Z,59.56
2022-11-02T02:49:09.769Z,59.52
2022-11-02T02:51:36.940Z,59.65
2022-11-02T02:54:04.025Z,60.05
2022-11-02T02:56:31.151Z,59.51
2022-11-02T02:58:58.297Z,59.60
2022-11-02T03:01:25.801Z,59.80
2022-11-02T03:03:52.938Z,59.69
2022-11-02T03:06:20.040Z,59.78
2022-11-02T03:08:47.130Z,59.53
2022-11-02T03:11:14.281Z,59.82
2022-11-02T03:13:41.408Z,59.45
2022-11-02T03:16:08.480Z,59.60
2022-11-02T03:18:35.592Z,59.44
2022-11-02T03:21:02.661Z,59.59
2022-11-02T03:23:29.871Z,59.50
2022-11-02T03:25:57.002Z,59.60
2022-11-02T03:28:24.149Z,59.60
2022-11-02T03:30:51.217Z,59.59
2022-11-02T03:33:18.326Z,59.77
2022-11-02T03:35:45.426Z,59.47
2022-11-02T03:38:12.518Z,59.42
2022-11-02T03:40:39.613Z,59.74
2022-11-02T03:43:06.765Z,59.46
2022-11-02T03:45:33.845Z,59.73
2022-11-02T03:48:01.036Z,59.57
2022-11-02T03:50:28.270Z,59.65
2022-11-02T03:52:55.393Z,59.47
2022-11-02T03:55:22.461Z,59.61
2022-11-02T03:57:49.536Z,59.72
2022-11-02T04:00:16.660Z,59.47
2022-11-02T04:02:44.736Z,59.63
2022-11-02T04:05:11.927Z,59.21
2022-11-02T04:07:59.542Z,59.65
2022-11-02T04:10:26.828Z,59.24
2022-11-02T04:13:29.630Z,59.35
2022-11-02T04:15:56.728Z,59.40
2022-11-02T04:18:42.778Z,59.07
2022-11-02T04:21:09.773Z,59.31
2022-11-02T04:23:55.740Z,59.41
2022-11-02T04:26:22.860Z,59.16
2022-11-02T04:28:49.933Z,59.18
2022-11-02T04:31:17.040Z,59.17
2022-11-02T04:33:44.112Z,59.32
2022-11-02T04:36:11.272Z,59.17
2022-11-02T04:38:41.129Z,59.11
2022-11-02T04:41:26.972Z,58.92
2022-11-02T04:43:54.157Z,59.44
2022-11-02T04:46:21.256Z,59.35
2022-11-02T04:48:48.386Z,59.01
2022-11-02T04:51:15.469Z,59.01
2022-11-02T04:53:42.630Z,59.38
2022-11-02T04:56:09.766Z,58.97
2022-11-02T04:58:36.862Z,58.82
2022-11-02T05:01:03.924Z,59.18
2022-11-02T05:03:31.050Z,59.13
2022-11-02T05:05:58.128Z,58.99
2022-11-02T05:08:25.198Z,59.13
2022-11-02T05:10:52.513Z,59.14
2022-11-02T05:13:19.612Z,58.97
2022-11-02T05:15:46.690Z,58.97
2022-11-02T05:18:18.620Z,59.12
2022-11-02T05:20:46.241Z,59.00
2022-11-02T05:23:13.313Z,58.75
2022-11-02T05:25:40.393Z,58.97
2022-11-02T05:28:07.526Z,58.87
2022-11-02T05:30:34.628Z,58.97
2022-11-02T05:33:03.128Z,59.07
2022-11-02T05:35:30.700Z,58.76
2022-11-02T05:37:57.791Z,58.90
2022-11-02T05:40:24.855Z,59.17
2022-11-02T05:42:51.970Z,59.00
2022-11-02T05:45:22.154Z,58.83
2022-11-02T05:47:51.731Z,58.89
2022-11-02T05:50:18.802Z,58.75
2022-11-02T05:52:45.876Z,58.77
2022-11-02T05:55:12.941Z,58.69
2022-11-02T05:57:40.039Z,58.94
2022-11-02T06:00:07.115Z,58.84
2022-11-02T06:02:41.702Z,58.69
2022-11-02T06:05:08.858Z,58.72
2022-11-02T06:07:35.977Z,58.87
2022-11-02T06:10:03.399Z,58.49
2022-11-02T06:12:30.493Z,58.72
2022-11-02T06:14:57.605Z,58.74
2022-11-02T06:17:24.949Z,58.59
2022-11-02T06:19:52.114Z,58.68
2022-11-02T06:22:19.207Z,58.85
2022-11-02T06:24:46.506Z,58.71
2022-11-02T06:27:13.649Z,58.59
2022-11-02T06:29:40.748Z,58.63
2022-11-02T06:32:07.810Z,58.35
2022-11-02T06:34:34.928Z,58.54
2022-11-02T06:37:02.112Z,58.56
2022-11-02T06:39:29.231Z,58.31
2022-11-02T06:41:56.341Z,58.55
2022-11-02T06:44:23.429Z,58.61
2022-11-02T06:46:50.523Z,58.55
2022-11-02T06:49:17.639Z,58.26
2022-11-02T06:51:44.745Z,58.26
2022-11-02T06:54:11.830Z,58.13
2022-11-02T06:56:38.940Z,58.43
2022-11-02T06:59:06.029Z,58.16
2022-11-02T07:01:33.249Z,58.04
2022-11-02T07:04:00.478Z,58.33
2022-11-02T07:06:27.570Z,58.22
2022-11-02T07:08:54.664Z,58.22
2022-11-02T07:11:21.783Z,58.08
2022-11-02T07:13:48.896Z,58.29
2022-11-02T07:16:16.170Z,58.39
2022-11-02T07:18:43.354Z,58.24
2022-11-02T07:21:11.899Z,57.94
2022-11-02T07:23:39.142Z,58.21
2022-11-02T07:26:06.229Z,57.92
2022-11-02T07:28:33.369Z,58.23
2022-11-02T07:31:00.453Z,58.17
2022-11-02T07:33:27.590Z,58.01
2022-11-02T07:35:54.663Z,58.01
2022-11-02T07:38:21.761Z,58.26
2022-11-02T07:40:48.836Z,58.09
2022-11-02T07:43:15.936Z,58.20
2022-11-02T07:45:43.100Z,58.22
2022-11-02T07:48:10.213Z,58.15
2022-11-02T07:50:37.292Z,58.05
2022-11-02T07:53:04.962Z,57.96
2022-11-02T07:55:32.322Z,57.92
2022-11-02T07:57:59.524Z,58.10
2022-11-02T08:00:26.829Z,57.78
2022-11-02T08:02:54.000Z,57.89
2022-11-02T08:05:21.118Z,58.04
2022-11-02T08:07:49.064Z,58.06
2022-11-02T08:10:16.210Z,57.99
2022-11-02T08:12:43.279Z,57.95
2022-11-02T08:15:10.353Z,57.67
2022-11-02T08:17:37.437Z,58.04
2022-11-02T08:20:04.584Z,57.97
2022-11-02T08:22:31.754Z,57.97
2022-11-02T08:24:58.834Z,57.87
2022-11-02T08:27:25.906Z,57.74
2022-11-02T08:29:52.998Z,57.68
2022-11-02T08:32:20.078Z,58.11
2022-11-02T08:34:47.251Z,57.94
2022-11-02T08:37:14.323Z,57.69
2022-11-02T08:39:41.610Z,57.92
2022-11-02T08:42:08.761Z,57.79
2022-11-02T08:44:41.491Z,57.81
2022-11-02T08:47:09.830Z,57.83
2022-11-02T08:49:37.048Z,58.27
2022-11-02T08:52:04.142Z,57.66
2022-11-02T08:54:31.271Z,57.66
2022-11-02T08:56:58.393Z,57.31
2022-11-02T08:59:26.061Z,57.46
2022-11-02T09:01:53.283Z,57.64
2022-11-02T09:04:20.493Z,57.40
2022-11-02T09:06:47.608Z,57.17
2022-11-02T09:09:14.782Z,57.21
2022-11-02T09:11:41.862Z,57.00
2022-11-02T09:14:09.020Z,56.99
2022-11-02T09:16:41.030Z,57.01
2022-11-02T09:19:08.623Z,56.76
2022-11-02T09:21:35.705Z,57.16
2022-11-02T09:24:02.838Z,56.78
2022-11-02T09:26:29.917Z,57.09
2022-11-02T09:28:57.113Z,56.83
2022-11-02T09:31:24.765Z,56.81
2022-11-02T09:33:51.860Z,56.82
2022-11-02T09:36:19.005Z,57.03
2022-11-02T09:38:46.120Z,57.23
2022-11-02T09:41:13.723Z,56.84
2022-11-02T09:43:40.792Z,56.96
2022-11-02T09:46:07.972Z,57.22
2022-11-02T09:48:35.681Z,56.99
2022-11-02T09:51:02.985Z,57.15
2022-11-02T09:53:30.074Z,57.50
2022-11-02T09:55:57.144Z,57.71
2022-11-02T09:58:25.375Z,57.58
2022-11-02T10:00:52.543Z,57.37
2022-11-02T10:03:20.206Z,57.29
2022-11-02T10:05:47.388Z,57.39
2022-11-02T10:08:14.508Z,57.62
2022-11-02T10:10:41.711Z,57.25
2022-11-02T10:13:08.870Z,57.28
2022-11-02T10:15:35.952Z,57.60
2022-11-02T10:18:03.073Z,57.19
2022-11-02T10:20:30.162Z,57.48
2022-11-02T10:22:57.281Z,57.34
2022-11-02T10:25:25.461Z,57.56
2022-11-02T10:27:52.945Z,57.24
2022-11-02T10:30:20.203Z,57.18
2022-11-02T10:32:47.645Z,57.18
2022-11-02T10:35:36.690Z,57.48
2022-11-02T10:38:02.139Z,57.09
2022-11-02T10:40:29.522Z,57.04
2022-11-02T10:42:56.693Z,57.47
2022-11-02T10:45:23.839Z,57.46
2022-11-02T10:47:50.910Z,57.42
2022-11-02T10:50:18.073Z,57.47
2022-11-02T10:52:45.177Z,57.31
2022-11-02T10:55:12.273Z,57.05
2022-11-02T10:57:39.355Z,57.37
2022-11-02T11:00:07.248Z,57.49
2022-11-02T11:02:34.338Z,57.83
2022-11-02T11:05:01.449Z,57.63
2022-11-02T11:07:28.710Z,57.36
2022-11-02T11:09:55.837Z,57.69
2022-11-02T11:12:22.925Z,57.45
2022-11-02T11:20:24.131Z,57.83
2022-11-02T11:22:51.282Z,57.85
2022-11-02T11:25:21.766Z,57.66
2022-11-02T11:27:51.524Z,57.79
2022-11-02T11:30:33.516Z,57.61
2022-11-02T11:33:05.726Z,57.72
2022-11-02T11:35:32.828Z,57.64
2022-11-02T11:37:59.979Z,57.68
2022-11-02T11:40:27.155Z,57.76
2022-11-02T11:42:57.510Z,57.59
2022-11-02T11:45:28.474Z,57.31
2022-11-02T11:47:55.559Z,57.60
2022-11-02T11:50:31.010Z,57.71
2022-11-02T11:52:58.187Z,57.79
2022-11-02T11:55:25.328Z,57.36
2022-11-02T11:57:52.453Z,57.49
2022-11-02T12:00:19.547Z,57.20
2022-11-02T12:02:46.708Z,57.52
2022-11-02T12:05:14.130Z,57.32
2022-11-02T12:07:41.197Z,57.41
2022-11-02T12:10:08.291Z,57.35
2022-11-02T12:12:35.381Z,57.04
2022-11-02T12:15:06.611Z,57.05
2022-11-02T12:17:34.208Z,57.06
2022-11-02T12:20:01.308Z,57.08
2022-11-02T12:22:28.426Z,56.92
2022-11-02T12:24:55.562Z,57.16
2022-11-02T12:27:22.639Z,56.95
2022-11-02T12:29:49.726Z,57.01
2022-11-02T12:32:16.897Z,57.04
2022-11-02T12:34:46.534Z,57.21
2022-11-02T12:37:40.253Z,57.13
2022-11-02T12:40:03.523Z,57.14
2022-11-02T12:42:30.754Z,57.26
2022-11-02T12:44:57.831Z,57.10
2022-11-02T12:47:25.959Z,57.06
2022-11-02T12:49:53.137Z,57.26
2022-11-02T12:52:20.239Z,57.01
2022-11-02T12:54:47.408Z,57.29
2022-11-02T12:57:14.530Z,57.26
2022-11-02T12:59:42.283Z,56.98
2022-11-02T13:02:09.815Z,57.37
2022-11-02T13:04:39.678Z,57.14
2022-11-02T13:07:07.044Z,57.46
2022-11-02T13:09:34.127Z,57.33
2022-11-02T13:12:01.221Z,57.17
2022-11-02T13:14:29.207Z,56.94
2022-11-02T13:16:56.290Z,57.06
2022-11-02T13:19:23.450Z,56.88
2022-11-02T13:21:50.664Z,56.87
2022-11-02T13:24:17.726Z,56.82
2022-11-02T13:26:44.915Z,57.12
2022-11-02T13:29:12.004Z,57.08
2022-11-02T13:31:39.091Z,57.06
2022-11-02T13:34:06.308Z,57.01
2022-11-02T13:36:33.399Z,57.08
2022-11-02T13:39:00.989Z,56.83
2022-11-02T13:41:28.125Z,56.93
2022-11-02T13:43:55.202Z,56.71
2022-11-02T13:46:23.313Z,56.98
2022-11-02T13:48:50.441Z,56.65
2022-11-02T13:51:17.507Z,56.66
2022-11-02T13:53:47.568Z,56.45
2022-11-02T13:56:16.000Z,56.56
2022-11-02T13:58:43.079Z,56.64
2022-11-02T14:01:10.220Z,56.20
2022-11-02T14:03:37.675Z,56.28
2022-11-02T14:06:04.749Z,56.16
2022-11-02T14:08:31.928Z,56.29
2022-11-02T14:11:03.211Z,56.51
2022-11-02T14:13:30.697Z,56.40
2022-11-02T14:15:57.790Z,56.26
2022-11-02T14:18:25.558Z,56.43
2022-11-02T14:20:52.669Z,56.55
2022-11-02T14:23:19.877Z,56.23
2022-11-02T14:25:47.060Z,56.42
2022-11-02T14:28:14.166Z,56.05
2022-11-02T14:30:42.070Z,55.77
2022-11-02T14:33:09.300Z,56.26
2022-11-02T14:35:36.634Z,55.91
2022-11-02T14:38:04.320Z,56.23
2022-11-02T14:40:31.801Z,55.99
2022-11-02T14:42:58.950Z,56.11
2022-11-02T14:45:26.097Z,56.11
2022-11-02T14:47:53.250Z,56.05
2022-11-02T14:50:20.351Z,56.24
2022-11-02T14:52:47.417Z,56.31
2022-11-02T14:55:14.500Z,56.32
2022-11-02T14:57:41.637Z,55.83
2022-11-02T15:00:08.798Z,56.16
2022-11-02T15:02:38.687Z,56.46
2022-11-02T15:05:09.226Z,56.30
2022-11-02T15:07:36.405Z,56.37
2022-11-02T15:10:03.466Z,56.45
2022-11-02T15:12:30.967Z,55.90
2022-11-02T15:14:58.099Z,55.87
2022-11-02T15:17:25.878Z,56.26
2022-11-02T15:19:53.764Z,56.33
2022-11-02T15:22:20.942Z,56.05
2022-11-02T15:24:48.050Z,56.04
2022-11-02T15:27:15.131Z,55.97
2022-11-02T15:29:42.282Z,55.99
2022-11-02T15:32:10.349Z,56.10
2022-11-02T15:34:37.424Z,55.79
2022-11-02T15:37:04.529Z,55.81
2022-11-02T15:39:31.755Z,55.80
2022-11-02T15:41:58.968Z,55.61
2022-11-02T15:44:26.145Z,55.86
2022-11-02T15:46:53.680Z,55.69
2022-11-02T15:49:20.771Z,55.83
2022-11-02T15:51:47.933Z,56.18
2022-11-02T15:54:15.079Z,56.17
2022-11-02T15:56:42.202Z,56.16
2022-11-02T15:59:09.298Z,56.17
2022-11-02T16:01:36.549Z,55.97
2022-11-02T16:04:04.119Z,56.02
2022-11-02T16:06:31.351Z,56.02
2022-11-02T16:08:58.550Z,56.24
2022-11-02T16:11:26.010Z,55.95
2022-11-02T16:14:08.407Z,56.32
2022-11-02T16:16:36.319Z,56.03
2022-11-02T16:19:04.065Z,55.28
2022-11-02T16:21:31.203Z,55.60
2022-11-02T16:23:59.486Z,55.31
2022-11-02T16:26:26.600Z,55.43
2022-11-02T16:28:53.704Z,55.06
2022-11-02T16:31:20.785Z,55.23
2022-11-02T16:33:47.878Z,55.36
2022-11-02T16:36:14.993Z,54.69
2022-11-02T16:38:42.070Z,54.97
2022-11-02T16:41:11.215Z,54.84
2022-11-02T16:43:44.466Z,54.87
2022-11-02T16:46:12.752Z,54.91
2022-11-02T16:48:39.819Z,55.22
2022-11-02T16:51:10.544Z,55.32
2022-11-02T16:53:41.479Z,54.99
2022-11-02T16:56:08.589Z,55.01
2022-11-02T16:58:35.658Z,55.17
2022-11-02T17:01:04.170Z,54.90
2022-11-02T17:03:31.723Z,54.77
2022-11-02T17:05:59.014Z,54.65
2022-11-02T17:08:26.245Z,55.01
2022-11-02T17:10:55.071Z,54.77
2022-11-02T17:13:23.124Z,54.38
2022-11-02T17:15:50.459Z,54.21
2022-11-02T17:18:17.623Z,53.74
2022-11-02T17:20:44.693Z,54.55
2022-11-02T17:23:11.772Z,53.85
2022-11-02T17:25:38.904Z,53.97
2022-11-02T17:28:06.264Z,53.75
2022-11-02T17:30:37.005Z,53.90
2022-11-02T17:33:04.183Z,54.74
2022-11-02T17:35:31.327Z,53.81
2022-11-02T17:37:58.433Z,53.62
2022-11-02T17:40:25.524Z,53.80
2022-11-02T17:42:58.620Z,53.48
2022-11-02T17:45:25.798Z,53.24
2022-11-02T17:47:52.912Z,53.09
2022-11-02T17:50:20.060Z,53.52
2022-11-02T17:52:49.034Z,53.73
2022-11-02T17:55:19.092Z,53.63
2022-11-02T17:57:46.575Z,53.34
2022-11-02T18:00:13.759Z,53.74
2022-11-02T18:02:40.982Z,53.23
2022-11-02T18:05:08.155Z,53.17
2022-11-02T18:07:35.224Z,53.36
2022-11-02T18:10:02.311Z,53.19
2022-11-02T18:12:29.424Z,53.51
2022-11-02T18:14:56.523Z,53.47
2022-11-02T18:17:23.602Z,53.60
2022-11-02T18:19:50.689Z,53.48
2022-11-02T18:22:17.835Z,53.25
2022-11-02T18:24:44.976Z,53.37
2022-11-02T18:27:12.130Z,53.96
2022-11-02T18:29:39.329Z,53.49
2022-11-02T18:32:06.393Z,53.56
2022-11-02T18:34:33.492Z,53.34
2022-11-02T18:37:01.163Z,53.33
2022-11-02T18:39:28.309Z,52.96
2022-11-02T18:41:55.440Z,53.04
2022-11-02T18:44:22.537Z,53.14
2022-11-02T18:46:49.906Z,53.45
2022-11-02T18:49:17.049Z,52.94
2022-11-02T18:51:45.701Z,53.14
2022-11-02T18:54:13.178Z,53.08
2022-11-02T18:56:40.454Z,53.46
2022-11-02T18:59:08.250Z,52.87
2022-11-02T19:01:35.975Z,53.08
2022-11-02T19:04:03.150Z,53.43
2022-11-02T19:06:49.073Z,53.18
2022-11-02T19:09:19.499Z,52.90
2022-11-02T19:11:47.242Z,52.96
2022-11-02T19:14:14.598Z,52.39
2022-11-02T19:16:41.909Z,52.57
2022-11-02T19:19:09.135Z,52.52
2022-11-02T19:21:36.263Z,52.75
2022-11-02T19:24:03.415Z,53.11
2022-11-02T19:26:30.544Z,53.24
2022-11-02T19:29:01.427Z,53.57
2022-11-02T19:31:32.213Z,53.44
2022-11-02T19:34:02.540Z,53.49
2022-11-02T19:36:29.658Z,53.97
2022-11-02T19:38:58.329Z,53.93
2022-11-02T19:41:25.432Z,53.57
2022-11-02T19:43:53.188Z,53.89
2022-11-02T19:46:20.370Z,53.52
2022-11-02T19:48:47.462Z,53.89
2022-11-02T19:51:17.513Z,53.89
2022-11-02T19:53:47.413Z,53.50
2022-11-02T19:56:14.498Z,53.86
2022-11-02T19:58:41.684Z,53.66
2022-11-02T20:01:08.833Z,53.91
2022-11-02T20:03:35.969Z,53.70
2022-11-02T20:06:03.075Z,53.84
2022-11-02T20:08:30.181Z,54.22
2022-11-02T20:10:59.489Z,53.67
2022-11-02T20:13:26.569Z,53.75
2022-11-02T20:15:53.680Z,53.68
2022-11-02T20:18:20.781Z,53.77
2022-11-02T20:20:47.917Z,53.96
2022-11-02T20:23:14.993Z,53.69
2022-11-02T20:25:42.064Z,53.76
2022-11-02T20:28:09.211Z,53.50
2022-11-02T20:30:36.322Z,53.95
2022-11-02T20:33:03.410Z,53.72
2022-11-02T20:35:30.556Z,53.61
2022-11-02T20:37:57.683Z,53.56
2022-11-02T20:40:24.846Z,53.61
2022-11-02T20:42:52.021Z,54.01
2022-11-02T20:45:19.203Z,53.90
2022-11-02T20:47:46.326Z,53.82
2022-11-02T20:50:16.638Z,53.45
2022-11-02T20:52:45.547Z,53.62
2022-11-02T20:55:12.699Z,53.43
2022-11-02T20:57:39.769Z,53.58
2022-11-02T21:00:06.893Z,53.48
2022-11-02T21:02:34.147Z,53.74
2022-11-02T21:05:01.249Z,53.94
2022-11-02T21:07:28.635Z,53.50
2022-11-02T21:09:55.718Z,53.81
2022-11-02T21:12:41.812Z,53.80
2022-11-02T21:15:08.890Z,53.70
2022-11-02T21:17:36.190Z,53.60
2022-11-02T21:20:28.480Z,54.04
2022-11-02T21:22:50.395Z,54.03
2022-11-02T21:25:17.502Z,53.74
2022-11-02T21:27:44.571Z,53.92
2022-11-02T21:30:11.658Z,53.84
2022-11-02T21:32:38.896Z,54.13
2022-11-02T21:35:06.806Z,54.29
2022-11-02T21:37:33.943Z,53.82
2022-11-02T21:40:01.013Z,53.93
2022-11-02T21:42:28.136Z,53.81
2022-11-02T21:44:55.251Z,53.94
2022-11-02T21:47:22.348Z,53.83
2022-11-02T21:49:49.431Z,54.05
2022-11-02T21:52:16.537Z,53.70
2022-11-02T21:54:43.603Z,53.75
2022-11-02T21:57:10.666Z,53.95
2022-11-02T21:59:37.745Z,53.27
2022-11-02T22:02:04.923Z,53.39
2022-11-02T22:04:32.489Z,53.80
2022-11-02T22:06:59.616Z,53.77
2022-11-02T22:09:26.844Z,53.70
2022-11-02T22:12:12.290Z,53.77
2022-11-02T22:14:39.387Z,53.72
2022-11-02T22:17:16.155Z,53.59
2022-11-02T22:19:43.896Z,53.41
2022-11-02T22:22:11.091Z,53.32
2022-11-02T22:24:42.144Z,53.54
2022-11-02T22:27:11.834Z,53.28
2022-11-02T22:29:38.946Z,53.31
2022-11-02T22:32:06.068Z,53.43
2022-11-02T22:34:33.148Z,53.22
2022-11-02T22:37:20.193Z,53.30
2022-11-02T22:39:47.285Z,53.36
2022-11-02T22:42:14.393Z,53.21
2022-11-02T22:44:41.520Z,53.07
2022-11-02T22:47:08.597Z,52.95
2022-11-02T22:49:36.296Z,52.68
2022-11-02T22:52:03.448Z,52.75
2022-11-02T22:54:30.657Z,52.92
2022-11-02T22:56:57.837Z,52.78
2022-11-02T22:59:24.898Z,52.81
2022-11-02T23:01:52.204Z,52.83
2022-11-02T23:04:19.503Z,53.03
2022-11-02T23:06:46.658Z,53.07
2022-11-02T23:09:13.744Z,52.91
2022-11-02T23:11:40.856Z,52.61
2022-11-02T23:14:08.034Z,52.72
2022-11-02T23:16:35.145Z,52.45
2022-11-02T23:19:28.604Z,52.57
2022-11-02T23:22:15.014Z,52.29
2022-11-02T23:25:00.725Z,52.45
2022-11-02T23:27:27.874Z,52.32
2022-11-02T23:30:13.709Z,52.32
2022-11-02T23:32:40.830Z,52.26
2022-11-02T23:35:26.837Z,52.51
2022-11-02T23:37:53.910Z,52.47
2022-11-02T23:40:20.987Z,52.33
2022-11-02T23:42:48.097Z,52.24
2022-11-02T23:45:15.175Z,52.12
2022-11-02T23:47:57.677Z,51.94
2022-11-02T23:50:43.329Z,52.32
2022-11-02T23:53:28.938Z,51.98
2022-11-02T23:56:14.694Z,52.28
2022-11-02T23:58:41.849Z,52.11
